Time;durP1;ratioP1;P1;durP2;ratioP2;P2;SDS_P1;SDS_P2;PMS_P1;PMS_P2;Temp;Humidity;BMP_temperature;BMP_pressure;BME280_temperature;BME280_humidity;BME280_pressure;Samples;Min_cycle;Max_cycle;Signal;HPM_P1;HPM_P2
2023/12/07 00:02:13;;;;;;;518.95;64.22;;;-1.20;100.00;;;;;;4987284;28;20050;-87
2023/12/07 00:04:40;;;;;;;382.45;66.47;;;-1.20;100.00;;;;;;4996653;28;20137;-86
2023/12/07 00:07:07;;;;;;;347.35;61.40;;;-1.20;100.00;;;;;;4985481;28;20561;-86
2023/12/07 00:09:34;;;;;;;389.52;60.47;;;-1.20;100.00;;;;;;4991390;28;20654;-87
2023/12/07 00:12:01;;;;;;;363.05;58.60;;;-1.10;100.00;;;;;;4991981;28;20054;-86
2023/12/07 00:14:29;;;;;;;359.50;60.85;;;-1.10;100.00;;;;;;4991763;28;20112;-85
2023/12/07 00:16:56;;;;;;;439.13;64.28;;;-1.10;100.00;;;;;;4991202;28;20113;-88
2023/12/07 00:19:24;;;;;;;435.85;70.85;;;-1.10;100.00;;;;;;4991186;28;20043;-86
2023/12/07 00:21:51;;;;;;;382.40;62.15;;;-1.20;100.00;;;;;;4981322;28;20050;-86
2023/12/07 00:24:17;;;;;;;412.63;68.78;;;-1.10;100.00;;;;;;4991597;28;20422;-86
2023/12/07 00:26:44;;;;;;;340.85;59.53;;;-1.10;100.00;;;;;;4981345;28;20042;-86
2023/12/07 00:29:11;;;;;;;366.85;59.22;;;-1.10;100.00;;;;;;4988251;28;20055;-86
2023/12/07 00:31:45;;;;;;;348.45;64.43;;;-1.10;100.00;;;;;;4985997;28;20069;-85
2023/12/07 00:34:26;;;;;;;390.85;61.35;;;-1.10;100.00;;;;;;4968628;28;20050;-85
2023/12/07 00:36:53;;;;;;;335.35;59.30;;;-1.10;100.00;;;;;;4981005;28;20047;-85
2023/12/07 00:39:20;;;;;;;390.13;62.97;;;-1.10;100.00;;;;;;4987938;28;20050;-85
2023/12/07 00:41:47;;;;;;;414.40;67.80;;;-1.10;100.00;;;;;;4995560;28;20049;-85
2023/12/07 00:44:14;;;;;;;390.65;60.25;;;-1.10;100.00;;;;;;4991633;28;20065;-85
2023/12/07 00:46:41;;;;;;;444.25;60.25;;;-1.10;100.00;;;;;;4985638;28;20058;-85
2023/12/07 00:49:08;;;;;;;586.75;68.13;;;-1.10;100.00;;;;;;4991070;28;20050;-85
2023/12/07 00:51:36;;;;;;;371.60;61.25;;;-1.10;100.00;;;;;;4985208;28;20047;-84
2023/12/07 00:54:06;;;;;;;439.10;62.50;;;-1.10;100.00;;;;;;4982927;28;20054;-85
2023/12/07 00:56:34;;;;;;;531.65;69.05;;;-1.10;100.00;;;;;;4989568;28;20153;-84
2023/12/07 00:59:01;;;;;;;426.65;64.28;;;-1.10;100.00;;;;;;4984039;28;20653;-85
2023/12/07 01:01:28;;;;;;;373.25;59.25;;;-1.10;100.00;;;;;;4972598;28;20053;-84
2023/12/07 01:03:55;;;;;;;359.85;60.10;;;-1.10;100.00;;;;;;4990373;28;20045;-84
2023/12/07 01:06:22;;;;;;;298.00;62.40;;;-1.10;100.00;;;;;;4982404;28;20134;-84
2023/12/07 01:08:49;;;;;;;337.02;60.20;;;-1.10;100.00;;;;;;4990025;28;20046;-84
2023/12/07 01:11:16;;;;;;;403.05;65.85;;;-1.10;100.00;;;;;;4987850;28;20051;-84
2023/12/07 01:13:43;;;;;;;371.52;62.20;;;-1.10;100.00;;;;;;4985632;28;20046;-85
2023/12/07 01:16:10;;;;;;;344.90;61.78;;;-1.10;100.00;;;;;;4990069;28;20046;-88
2023/12/07 01:18:37;;;;;;;314.02;59.78;;;-1.00;100.00;;;;;;4988769;28;20134;-87
2023/12/07 01:21:04;;;;;;;318.98;61.22;;;-1.10;100.00;;;;;;4987944;28;20125;-86
2023/12/07 01:23:32;;;;;;;308.67;57.25;;;-1.00;100.00;;;;;;4980544;28;20063;-86
2023/12/07 01:26:09;;;;;;;278.42;54.22;;;-1.00;100.00;;;;;;4983577;28;20152;-86
2023/12/07 01:28:36;;;;;;;292.48;56.28;;;-1.10;100.00;;;;;;4982486;28;20066;-87
2023/12/07 01:31:04;;;;;;;275.00;56.05;;;-1.10;100.00;;;;;;4989490;28;20707;-85
2023/12/07 01:33:31;;;;;;;276.85;54.50;;;-1.10;100.00;;;;;;4981667;28;20050;-86
2023/12/07 01:35:58;;;;;;;311.27;59.60;;;-1.10;100.00;;;;;;4990971;28;20042;-87
2023/12/07 01:38:25;;;;;;;286.83;55.35;;;-1.00;100.00;;;;;;4972634;23;20053;-85
2023/12/07 01:40:52;;;;;;;282.15;60.20;;;-1.10;100.00;;;;;;4988754;28;20066;-84
2023/12/07 01:43:20;;;;;;;270.90;56.58;;;-1.00;100.00;;;;;;4978766;28;20050;-84
2023/12/07 01:45:48;;;;;;;265.92;57.47;;;-1.00;100.00;;;;;;4989685;28;20155;-83
2023/12/07 01:48:15;;;;;;;277.42;55.92;;;-1.00;100.00;;;;;;5005594;28;20043;-83
2023/12/07 01:50:42;;;;;;;330.33;59.55;;;-1.00;100.00;;;;;;4998052;28;20451;-83
2023/12/07 01:53:09;;;;;;;292.13;57.08;;;-1.00;100.00;;;;;;5001332;28;20042;-84
2023/12/07 01:55:37;;;;;;;296.25;61.35;;;-1.00;100.00;;;;;;5005597;28;20054;-84
2023/12/07 01:58:04;;;;;;;338.10;57.40;;;-1.00;100.00;;;;;;4978049;28;20047;-84
2023/12/07 02:00:33;;;;;;;310.77;59.95;;;-1.00;100.00;;;;;;4998716;28;20074;-84
2023/12/07 02:03:04;;;;;;;317.73;56.42;;;-1.00;100.00;;;;;;4989529;28;20136;-84
2023/12/07 02:05:32;;;;;;;304.92;63.08;;;-1.00;100.00;;;;;;4972006;28;20096;-84
2023/12/07 02:07:59;;;;;;;309.90;56.17;;;-1.00;100.00;;;;;;4985830;28;20499;-86
2023/12/07 02:10:26;;;;;;;320.15;60.97;;;-1.00;100.00;;;;;;5003916;28;20058;-85
2023/12/07 02:12:54;;;;;;;270.00;56.72;;;-1.00;100.00;;;;;;4997534;28;20046;-85
2023/12/07 02:15:21;;;;;;;291.33;57.13;;;-1.00;100.00;;;;;;4977155;28;20394;-86
2023/12/07 02:18:10;;;;;;;320.92;60.10;;;-1.00;100.00;;;;;;4987414;28;20765;-86
2023/12/07 02:20:45;;;;;;;294.52;55.90;;;-1.00;100.00;;;;;;4988710;28;20050;-86
2023/12/07 02:23:15;;;;;;;303.38;57.50;;;-1.00;100.00;;;;;;4996956;28;20054;-85
2023/12/07 02:26:51;;;;;;;302.92;56.25;;;-1.00;100.00;;;;;;4980151;28;20073;-84
2023/12/07 02:29:17;;;;;;;303.98;55.97;;;-1.00;100.00;;;;;;4969301;28;20054;-84
2023/12/07 02:31:45;;;;;;;333.88;60.30;;;-1.00;100.00;;;;;;4977554;28;20051;-84
2023/12/07 02:34:12;;;;;;;571.83;72.68;;;-1.00;100.00;;;;;;4987942;28;20051;-84
2023/12/07 02:36:41;;;;;;;439.75;65.55;;;-1.00;100.00;;;;;;5001512;28;20050;-84
2023/12/07 02:39:09;;;;;;;369.27;63.45;;;-1.00;100.00;;;;;;4995272;28;20051;-84
2023/12/07 02:41:37;;;;;;;472.65;67.90;;;-1.00;100.00;;;;;;4983602;28;20070;-85
2023/12/07 02:44:05;;;;;;;381.98;62.80;;;-1.00;100.00;;;;;;5003806;28;20789;-86
2023/12/07 02:46:32;;;;;;;405.63;64.28;;;-1.00;100.00;;;;;;4980296;28;20050;-86
2023/12/07 02:48:59;;;;;;;359.27;64.75;;;-1.00;100.00;;;;;;4975415;28;20055;-85
2023/12/07 02:51:26;;;;;;;382.63;61.72;;;-1.00;100.00;;;;;;5003597;28;20046;-88
2023/12/07 02:53:53;;;;;;;472.95;67.75;;;-1.00;100.00;;;;;;5002646;28;20034;-88
2023/12/07 02:56:20;;;;;;;518.85;69.55;;;-1.00;100.00;;;;;;4998095;28;20467;-86
2023/12/07 02:58:47;;;;;;;403.77;62.95;;;-1.00;100.00;;;;;;4988046;28;20110;-85
2023/12/07 03:01:14;;;;;;;546.92;68.13;;;-0.90;100.00;;;;;;5003337;28;20116;-86
2023/12/07 03:03:42;;;;;;;678.88;77.60;;;-1.00;100.00;;;;;;4980407;28;20070;-87
2023/12/07 03:06:10;;;;;;;390.35;65.10;;;-0.90;100.00;;;;;;4983979;28;20097;-86
2023/12/07 03:08:52;;;;;;;386.85;62.75;;;-0.90;100.00;;;;;;4995401;28;20138;-86
2023/12/07 03:11:18;;;;;;;474.15;69.65;;;-0.90;100.00;;;;;;5003116;28;20598;-87
2023/12/07 03:13:46;;;;;;;514.25;69.90;;;-0.90;100.00;;;;;;4968250;28;20054;-85
2023/12/07 03:16:13;;;;;;;623.67;71.75;;;-0.90;100.00;;;;;;4980594;28;20050;-85
2023/12/07 03:18:40;;;;;;;498.98;67.25;;;-0.90;100.00;;;;;;4997404;28;20061;-85
2023/12/07 03:21:07;;;;;;;707.42;82.25;;;-0.90;100.00;;;;;;4993276;28;20086;-83
2023/12/07 03:23:34;;;;;;;538.28;71.15;;;-0.90;100.00;;;;;;5002614;28;20120;-84
2023/12/07 03:26:01;;;;;;;485.75;68.30;;;-0.90;100.00;;;;;;4984576;28;20130;-86
2023/12/07 03:28:28;;;;;;;532.70;69.20;;;-0.90;100.00;;;;;;4997010;28;20399;-85
2023/12/07 03:30:55;;;;;;;471.85;66.70;;;-0.90;100.00;;;;;;5001130;28;20498;-84
2023/12/07 03:33:22;;;;;;;485.48;66.28;;;-0.80;100.00;;;;;;4999022;28;20050;-84
2023/12/07 03:35:49;;;;;;;608.72;72.05;;;-0.80;100.00;;;;;;4989407;28;20434;-83
2023/12/07 03:38:16;;;;;;;455.15;63.75;;;-0.80;100.00;;;;;;5005498;28;20088;-82
2023/12/07 03:40:47;;;;;;;470.55;66.60;;;-0.80;100.00;;;;;;4991586;28;20058;-82
2023/12/07 03:43:18;;;;;;;524.80;68.45;;;-0.80;100.00;;;;;;5006710;28;20212;-83
2023/12/07 03:45:45;;;;;;;486.02;67.05;;;-0.80;100.00;;;;;;5003290;28;20277;-82
2023/12/07 03:48:12;;;;;;;475.40;66.57;;;-0.80;100.00;;;;;;4988681;28;20054;-84
2023/12/07 03:50:39;;;;;;;491.80;71.82;;;-0.80;100.00;;;;;;4984516;28;20218;-85
2023/12/07 03:53:06;;;;;;;511.38;70.07;;;-0.80;100.00;;;;;;4992255;28;20046;-85
2023/12/07 03:55:33;;;;;;;735.65;77.68;;;-0.80;100.00;;;;;;4992157;28;20055;-86
2023/12/07 03:58:00;;;;;;;726.25;76.85;;;-0.80;100.00;;;;;;4987901;28;20046;-85
2023/12/07 04:00:27;;;;;;;731.97;79.25;;;-0.80;100.00;;;;;;5004733;28;20283;-85
2023/12/07 04:02:54;;;;;;;768.08;79.32;;;-0.80;100.00;;;;;;4999526;28;20667;-85
2023/12/07 04:05:21;;;;;;;485.20;68.90;;;-0.80;100.00;;;;;;4990605;28;20038;-84
2023/12/07 04:07:48;;;;;;;572.33;68.90;;;-0.80;100.00;;;;;;5003269;28;20055;-85
2023/12/07 04:10:14;;;;;;;901.33;86.15;;;-0.80;100.00;;;;;;5006379;28;20046;-85
2023/12/07 04:12:41;;;;;;;652.90;77.70;;;-0.70;100.00;;;;;;4990294;28;20777;-85
2023/12/07 04:15:09;;;;;;;670.97;77.55;;;-0.70;100.00;;;;;;5003039;28;20050;-86
2023/12/07 04:17:36;;;;;;;906.70;87.45;;;-0.70;100.00;;;;;;5005839;28;20626;-85
2023/12/07 04:20:03;;;;;;;957.60;85.47;;;-0.70;100.00;;;;;;5005581;28;20046;-84
2023/12/07 04:23:07;;;;;;;818.30;83.82;;;-0.70;100.00;;;;;;5001546;28;20488;-84
2023/12/07 04:25:35;;;;;;;877.55;85.95;;;-0.70;100.00;;;;;;5004678;28;20656;-84
2023/12/07 04:28:02;;;;;;;712.45;75.72;;;-0.70;100.00;;;;;;4986934;28;20085;-84
2023/12/07 04:30:29;;;;;;;644.17;75.65;;;-0.70;100.00;;;;;;4997142;28;20046;-86
2023/12/07 04:32:56;;;;;;;630.65;72.93;;;-0.70;100.00;;;;;;5004239;28;20462;-86
2023/12/07 04:35:23;;;;;;;481.10;67.35;;;-0.70;100.00;;;;;;4990034;28;20043;-86
2023/12/07 04:37:49;;;;;;;717.75;75.60;;;-0.70;100.00;;;;;;4990073;28;20634;-87
2023/12/07 04:40:16;;;;;;;610.92;70.22;;;-0.70;100.00;;;;;;4986886;28;20499;-87
2023/12/07 04:42:43;;;;;;;475.10;68.78;;;-0.70;100.00;;;;;;5006709;28;20050;-86
2023/12/07 04:45:10;;;;;;;472.80;64.18;;;-0.60;100.00;;;;;;4988666;28;20046;-86
2023/12/07 04:47:37;;;;;;;436.23;63.95;;;-0.60;100.00;;;;;;4996620;28;20058;-85
2023/12/07 04:50:05;;;;;;;519.63;63.58;;;-0.60;100.00;;;;;;4999895;28;20042;-84
2023/12/07 04:52:32;;;;;;;473.50;63.03;;;-0.60;100.00;;;;;;5005961;28;20494;-86
2023/12/07 04:55:00;;;;;;;478.38;63.92;;;-0.60;100.00;;;;;;5003816;28;20069;-85
2023/12/07 04:57:27;;;;;;;425.73;60.05;;;-0.60;100.00;;;;;;4985632;28;20081;-86
2023/12/07 04:59:54;;;;;;;394.40;54.53;;;-0.60;100.00;;;;;;5004262;28;20116;-84
2023/12/07 05:02:21;;;;;;;398.73;54.10;;;-0.60;100.00;;;;;;4988910;28;20125;-85
2023/12/07 05:04:48;;;;;;;401.60;57.92;;;-0.50;100.00;;;;;;4981302;28;20058;-84
2023/12/07 05:07:15;;;;;;;370.30;52.45;;;-0.50;100.00;;;;;;5006080;28;20050;-84
2023/12/07 05:09:42;;;;;;;361.15;52.25;;;-0.50;100.00;;;;;;4999960;28;20061;-85
2023/12/07 05:12:09;;;;;;;304.33;50.30;;;-0.50;100.00;;;;;;4979731;28;20113;-86
2023/12/07 05:14:36;;;;;;;322.67;52.75;;;-0.50;100.00;;;;;;5002360;28;20129;-86
2023/12/07 05:17:05;;;;;;;370.38;51.75;;;-0.50;100.00;;;;;;4986401;28;20101;-85
2023/12/07 05:19:32;;;;;;;374.90;55.03;;;-0.50;100.00;;;;;;4985698;28;20042;-85
2023/12/07 05:21:58;;;;;;;358.77;50.67;;;-0.40;100.00;;;;;;4995961;28;20137;-86
2023/12/07 05:24:26;;;;;;;360.05;52.65;;;-0.50;100.00;;;;;;4978020;28;20056;-85
2023/12/07 05:26:52;;;;;;;320.95;52.00;;;-0.40;100.00;;;;;;4998720;28;20503;-85
2023/12/07 05:29:20;;;;;;;350.88;51.42;;;-0.40;100.00;;;;;;5000857;28;20109;-85
2023/12/07 05:31:50;;;;;;;324.83;50.88;;;-0.40;100.00;;;;;;4987352;28;20104;-85
2023/12/07 05:34:17;;;;;;;285.08;47.72;;;-0.40;100.00;;;;;;4987715;28;20050;-84
2023/12/07 05:36:46;;;;;;;315.23;51.38;;;-0.40;100.00;;;;;;4990398;28;20509;-84
2023/12/07 05:39:13;;;;;;;359.02;54.42;;;-0.40;100.00;;;;;;4983018;28;20042;-83
2023/12/07 05:41:40;;;;;;;334.90;49.90;;;-0.40;100.00;;;;;;4988955;28;20057;-83
2023/12/07 05:44:07;;;;;;;259.08;48.88;;;-0.40;100.00;;;;;;5000169;28;20078;-83
2023/12/07 05:46:36;;;;;;;356.98;51.53;;;-0.40;100.00;;;;;;4992920;28;20171;-82
2023/12/07 05:49:03;;;;;;;305.55;52.08;;;-0.40;100.00;;;;;;4985813;28;20050;-83
2023/12/07 05:51:30;;;;;;;329.63;50.38;;;-0.40;100.00;;;;;;4983202;28;20050;-84
2023/12/07 05:53:57;;;;;;;306.90;49.83;;;-0.40;100.00;;;;;;5005237;28;20050;-84
2023/12/07 05:56:24;;;;;;;321.55;48.67;;;-0.40;100.00;;;;;;4980474;28;20046;-83
2023/12/07 05:58:51;;;;;;;301.95;47.10;;;-0.30;100.00;;;;;;4999994;28;20141;-82
2023/12/07 06:01:18;;;;;;;281.38;50.65;;;-0.30;100.00;;;;;;4983260;28;20144;-88
2023/12/07 06:03:46;;;;;;;324.13;48.45;;;-0.30;100.00;;;;;;4989876;28;20059;-87
2023/12/07 06:06:13;;;;;;;311.20;47.80;;;-0.30;100.00;;;;;;5006138;28;20046;-88
2023/12/07 06:08:40;;;;;;;322.52;49.60;;;-0.30;100.00;;;;;;5006652;28;20527;-86
2023/12/07 06:11:13;;;;;;;320.48;47.45;;;-0.30;100.00;;;;;;5007695;28;20128;-85
2023/12/07 06:13:41;;;;;;;361.02;51.83;;;-0.30;100.00;;;;;;5006408;28;20057;-88
2023/12/07 06:16:12;;;;;;;322.05;49.40;;;-0.30;100.00;;;;;;4999077;28;20042;-89
2023/12/07 06:18:52;;;;;;;309.27;49.47;;;-0.30;100.00;;;;;;4979059;28;20201;-88
2023/12/07 06:21:21;;;;;;;314.38;50.45;;;-0.30;100.00;;;;;;5004755;28;20054;-84
2023/12/07 06:23:48;;;;;;;284.98;48.78;;;-0.30;100.00;;;;;;5002202;28;20046;-85
2023/12/07 06:26:16;;;;;;;308.30;50.13;;;-0.30;100.00;;;;;;5005325;28;20486;-88
2023/12/07 06:28:44;;;;;;;296.15;49.22;;;-0.30;100.00;;;;;;4988723;28;20081;-87
2023/12/07 06:31:12;;;;;;;304.60;49.40;;;-0.30;100.00;;;;;;5004649;28;20100;-86
2023/12/07 06:33:39;;;;;;;290.10;48.15;;;-0.30;100.00;;;;;;4979047;28;20089;-87
2023/12/07 06:36:07;;;;;;;260.83;47.90;;;-0.30;100.00;;;;;;5011837;28;20082;-90
2023/12/07 06:38:34;;;;;;;306.67;49.47;;;-0.20;100.00;;;;;;5005425;28;20570;-85
2023/12/07 06:41:01;;;;;;;289.73;46.78;;;-0.30;100.00;;;;;;4983662;28;20104;-86
2023/12/07 06:43:28;;;;;;;327.77;49.08;;;-0.20;100.00;;;;;;4985115;28;20396;-88
2023/12/07 06:45:55;;;;;;;304.65;49.85;;;-0.30;100.00;;;;;;5006054;28;20058;-86
2023/12/07 06:48:22;;;;;;;329.75;49.38;;;-0.30;100.00;;;;;;5004388;28;20054;-85
2023/12/07 06:50:49;;;;;;;302.00;47.35;;;-0.30;100.00;;;;;;4995446;28;20054;-85
2023/12/07 06:53:18;;;;;;;327.42;47.92;;;-0.20;100.00;;;;;;4989070;28;20058;-86
2023/12/07 06:55:45;;;;;;;283.63;47.20;;;-0.20;100.00;;;;;;5005467;28;20069;-86
2023/12/07 06:58:12;;;;;;;320.77;46.67;;;-0.20;100.00;;;;;;4986893;28;20777;-86
2023/12/07 07:00:39;;;;;;;333.30;47.53;;;-0.20;100.00;;;;;;4981873;28;20046;-86
2023/12/07 07:03:06;;;;;;;319.30;46.35;;;-0.20;100.00;;;;;;5003125;28;20050;-85
2023/12/07 07:05:33;;;;;;;315.55;46.85;;;-0.20;100.00;;;;;;4986175;28;20062;-86
2023/12/07 07:08:00;;;;;;;309.00;46.97;;;-0.20;100.00;;;;;;5004701;28;20076;-86
2023/12/07 07:10:27;;;;;;;250.77;43.95;;;-0.20;100.00;;;;;;4999902;28;20105;-86
2023/12/07 07:12:54;;;;;;;279.90;44.47;;;-0.20;100.00;;;;;;4979657;28;20049;-85
2023/12/07 07:15:23;;;;;;;286.02;47.85;;;-0.20;100.00;;;;;;5004154;28;20116;-86
2023/12/07 07:17:50;;;;;;;300.73;48.13;;;-0.20;100.00;;;;;;5001738;28;20054;-86
2023/12/07 07:20:17;;;;;;;285.55;49.88;;;-0.20;100.00;;;;;;4993455;28;20038;-86
2023/12/07 07:22:45;;;;;;;299.67;47.58;;;-0.20;100.00;;;;;;5008806;28;20125;-87
2023/12/07 07:25:12;;;;;;;287.92;44.20;;;-0.20;100.00;;;;;;5006934;28;20104;-86
2023/12/07 07:27:39;;;;;;;278.23;47.13;;;-0.20;100.00;;;;;;5008564;28;20055;-86
2023/12/07 07:30:06;;;;;;;286.55;46.72;;;-0.20;100.00;;;;;;4993819;28;20046;-86
2023/12/07 07:32:35;;;;;;;275.05;46.55;;;-0.20;100.00;;;;;;4985426;28;20079;-85
2023/12/07 07:35:02;;;;;;;278.20;45.72;;;-0.20;100.00;;;;;;4993240;28;20064;-86
2023/12/07 07:37:29;;;;;;;291.05;48.78;;;-0.20;100.00;;;;;;4989728;28;20804;-86
2023/12/07 07:39:56;;;;;;;240.90;45.08;;;-0.10;100.00;;;;;;4989678;28;20046;-86
2023/12/07 07:42:23;;;;;;;234.77;44.10;;;-0.10;100.00;;;;;;4992042;28;20046;-85
2023/12/07 07:44:50;;;;;;;253.63;44.25;;;-0.10;100.00;;;;;;5001795;28;20054;-86
2023/12/07 07:47:17;;;;;;;255.77;45.22;;;-0.10;100.00;;;;;;5004118;28;20153;-86
2023/12/07 07:49:44;;;;;;;251.82;43.00;;;-0.10;100.00;;;;;;4992821;28;20054;-87
2023/12/07 07:52:11;;;;;;;248.10;44.72;;;-0.10;100.00;;;;;;5004396;28;20097;-86
2023/12/07 07:54:38;;;;;;;272.50;48.13;;;-0.10;100.00;;;;;;4991154;28;20113;-86
2023/12/07 07:57:05;;;;;;;262.83;43.08;;;-0.10;100.00;;;;;;5001779;28;20069;-86
2023/12/07 07:59:31;;;;;;;233.93;43.72;;;-0.10;100.00;;;;;;4986765;28;20178;-86
2023/12/07 08:01:58;;;;;;;236.95;39.40;;;-0.10;100.00;;;;;;5005389;28;20050;-86
2023/12/07 08:04:25;;;;;;;296.10;43.05;;;-0.10;100.00;;;;;;4986345;28;20391;-86
2023/12/07 08:06:52;;;;;;;274.98;44.15;;;-0.10;100.00;;;;;;4980382;28;20056;-86
2023/12/07 08:09:19;;;;;;;243.68;41.58;;;-0.10;100.00;;;;;;4999243;28;20054;-86
2023/12/07 08:11:46;;;;;;;276.17;43.95;;;-0.10;100.00;;;;;;4991519;28;20050;-87
2023/12/07 08:14:13;;;;;;;273.58;44.38;;;0.00;100.00;;;;;;4987570;28;20043;-86
2023/12/07 08:16:46;;;;;;;269.80;46.50;;;0.00;100.00;;;;;;5003629;28;20442;-86
2023/12/07 08:19:13;;;;;;;247.50;43.08;;;0.00;100.00;;;;;;5002229;28;20101;-86
2023/12/07 08:21:40;;;;;;;262.48;46.55;;;0.00;100.00;;;;;;4992178;28;20050;-86
2023/12/07 08:24:08;;;;;;;254.15;44.08;;;0.00;100.00;;;;;;5006401;28;20053;-87
2023/12/07 08:26:35;;;;;;;258.75;42.55;;;0.00;100.00;;;;;;4990169;28;20765;-87
2023/12/07 08:29:02;;;;;;;275.92;48.08;;;0.00;100.00;;;;;;4989277;28;20046;-87
2023/12/07 08:31:31;;;;;;;229.07;42.78;;;0.00;100.00;;;;;;4991907;28;20042;-86
2023/12/07 08:33:58;;;;;;;231.82;44.25;;;0.00;100.00;;;;;;4991845;28;20046;-86
2023/12/07 08:36:26;;;;;;;211.52;42.58;;;0.00;100.00;;;;;;5005715;28;20046;-87
2023/12/07 08:38:54;;;;;;;247.38;42.63;;;0.00;100.00;;;;;;5008350;28;20116;-87
2023/12/07 08:41:20;;;;;;;236.07;44.88;;;0.00;100.00;;;;;;4989592;28;20117;-87
2023/12/07 08:43:47;;;;;;;246.55;44.08;;;0.00;100.00;;;;;;4990727;28;20553;-87
2023/12/07 08:46:14;;;;;;;238.35;43.70;;;0.00;100.00;;;;;;4984872;28;20487;-87
2023/12/07 08:48:42;;;;;;;223.80;43.50;;;0.00;100.00;;;;;;4986785;28;20507;-87
2023/12/07 08:51:10;;;;;;;246.45;46.45;;;0.10;100.00;;;;;;5000639;28;20680;-87
2023/12/07 08:53:38;;;;;;;257.85;45.65;;;0.10;100.00;;;;;;4991045;28;20128;-87
2023/12/07 08:56:05;;;;;;;226.00;46.08;;;0.10;100.00;;;;;;4980106;28;20716;-88
2023/12/07 08:58:32;;;;;;;240.32;44.95;;;0.10;100.00;;;;;;4991831;28;20042;-88
2023/12/07 09:00:59;;;;;;;260.80;48.45;;;0.20;100.00;;;;;;5007686;28;20081;-88
2023/12/07 09:03:28;;;;;;;197.30;44.88;;;0.20;100.00;;;;;;4983873;28;20058;-88
2023/12/07 09:05:55;;;;;;;222.00;44.70;;;0.20;100.00;;;;;;4990968;28;20062;-87
2023/12/07 09:08:22;;;;;;;212.68;42.45;;;0.20;100.00;;;;;;5005579;28;20050;-88
2023/12/07 09:10:52;;;;;;;216.73;42.75;;;0.20;100.00;;;;;;5006121;28;20055;-88
2023/12/07 09:13:18;;;;;;;227.18;45.42;;;0.30;100.00;;;;;;4984189;28;20122;-88
2023/12/07 09:15:45;;;;;;;226.57;44.10;;;0.30;100.00;;;;;;4977360;28;20046;-87
2023/12/07 09:18:12;;;;;;;205.27;41.45;;;0.30;100.00;;;;;;4990835;28;20108;-87
2023/12/07 09:20:45;;;;;;;207.95;44.25;;;0.30;100.00;;;;;;5003855;28;20057;-87
2023/12/07 09:23:14;;;;;;;207.82;42.72;;;0.40;100.00;;;;;;5008414;28;20061;-87
2023/12/07 09:25:42;;;;;;;210.52;42.78;;;0.40;100.00;;;;;;4990313;28;20062;-87
2023/12/07 09:28:09;;;;;;;186.68;43.17;;;0.40;100.00;;;;;;4985138;28;20051;-87
2023/12/07 09:30:36;;;;;;;195.32;41.78;;;0.40;100.00;;;;;;5001951;28;20050;-86
2023/12/07 09:33:04;;;;;;;201.85;41.70;;;0.40;100.00;;;;;;5004502;28;20054;-87
2023/12/07 09:35:31;;;;;;;196.80;42.05;;;0.40;100.00;;;;;;5004283;28;20047;-87
2023/12/07 09:37:58;;;;;;;194.23;42.30;;;0.40;100.00;;;;;;4998744;28;20054;-86
2023/12/07 09:40:25;;;;;;;204.50;41.63;;;0.40;100.00;;;;;;4990056;28;20688;-86
2023/12/07 09:42:53;;;;;;;219.30;43.30;;;0.40;100.00;;;;;;5005628;28;20050;-86
2023/12/07 09:45:21;;;;;;;194.23;39.78;;;0.40;100.00;;;;;;4984556;28;20070;-86
2023/12/07 09:47:53;;;;;;;200.98;42.58;;;0.40;100.00;;;;;;5001305;28;20526;-86
2023/12/07 09:50:22;;;;;;;191.38;37.65;;;0.40;100.00;;;;;;5002842;28;20042;-85
2023/12/07 09:52:56;;;;;;;219.60;41.13;;;0.40;100.00;;;;;;5003436;28;20050;-86
2023/12/07 09:55:34;;;;;;;193.77;36.75;;;0.40;100.00;;;;;;4999557;28;20120;-86
2023/12/07 09:58:04;;;;;;;187.55;36.63;;;0.40;100.00;;;;;;4986261;28;20050;-86
2023/12/07 10:00:33;;;;;;;231.20;38.13;;;0.40;100.00;;;;;;5001284;28;20093;-86
2023/12/07 10:03:00;;;;;;;243.35;35.50;;;0.40;100.00;;;;;;4989665;28;20129;-86
2023/12/07 10:05:27;;;;;;;218.57;35.50;;;0.40;100.00;;;;;;5004747;28;20077;-86
2023/12/07 10:07:54;;;;;;;267.70;38.55;;;0.40;100.00;;;;;;5005992;28;20133;-86
2023/12/07 10:10:21;;;;;;;271.77;37.88;;;0.40;100.00;;;;;;4985783;28;20491;-86
2023/12/07 10:12:55;;;;;;;217.85;34.20;;;0.40;100.00;;;;;;4984515;28;20051;-86
2023/12/07 10:15:25;;;;;;;221.27;36.40;;;0.40;100.00;;;;;;4993980;28;20046;-85
2023/12/07 10:17:56;;;;;;;244.95;36.17;;;0.50;100.00;;;;;;4985864;28;20855;-86
2023/12/07 10:20:29;;;;;;;270.95;36.35;;;0.50;100.00;;;;;;4980380;28;20130;-85
2023/12/07 10:23:07;;;;;;;235.10;34.42;;;0.50;100.00;;;;;;4997983;28;20499;-85
2023/12/07 10:25:42;;;;;;;207.48;33.25;;;0.40;100.00;;;;;;5000250;28;20058;-85
2023/12/07 10:28:11;;;;;;;213.93;32.38;;;0.50;100.00;;;;;;4988755;28;20061;-84
2023/12/07 10:30:43;;;;;;;230.20;32.08;;;0.40;100.00;;;;;;4988184;28;20161;-84
2023/12/07 10:33:12;;;;;;;215.68;32.30;;;0.50;100.00;;;;;;4987993;28;20054;-84
2023/12/07 10:35:40;;;;;;;225.95;36.15;;;0.40;100.00;;;;;;4998069;23;20077;-84
2023/12/07 10:38:08;;;;;;;217.93;33.05;;;0.40;100.00;;;;;;5005648;28;20176;-85
2023/12/07 10:40:35;;;;;;;237.88;35.72;;;0.40;100.00;;;;;;5006857;28;20110;-84
2023/12/07 10:43:06;;;;;;;222.63;34.35;;;0.40;100.00;;;;;;5016217;28;20128;-84
2023/12/07 10:45:34;;;;;;;199.48;31.63;;;0.50;100.00;;;;;;5012904;28;20203;-84
2023/12/07 10:48:09;;;;;;;219.93;36.15;;;0.50;100.00;;;;;;5006896;28;20049;-84
2023/12/07 10:50:43;;;;;;;189.65;31.60;;;0.50;100.00;;;;;;5007907;28;20060;-84
2023/12/07 10:53:19;;;;;;;196.93;33.67;;;0.50;100.00;;;;;;5010540;28;20653;-83
2023/12/07 10:55:52;;;;;;;192.93;32.10;;;0.50;100.00;;;;;;5005184;28;20069;-83
2023/12/07 10:58:21;;;;;;;185.13;32.67;;;0.50;100.00;;;;;;5009419;28;20108;-83
2023/12/07 11:00:48;;;;;;;195.25;32.65;;;0.60;100.00;;;;;;5016844;28;20103;-83
2023/12/07 11:03:17;;;;;;;191.68;35.53;;;0.60;100.00;;;;;;5006661;28;20088;-83
2023/12/07 11:05:46;;;;;;;165.27;30.52;;;0.60;100.00;;;;;;5006397;28;20049;-83
2023/12/07 11:08:22;;;;;;;173.00;31.73;;;0.60;100.00;;;;;;5006098;28;20065;-83
2023/12/07 11:11:23;;;;;;;195.43;33.33;;;0.50;100.00;;;;;;5016164;28;20061;-83
2023/12/07 11:14:13;;;;;;;186.23;32.35;;;0.60;100.00;;;;;;5021511;28;20083;-84
2023/12/07 11:16:41;;;;;;;182.35;33.47;;;0.60;100.00;;;;;;5003228;28;20132;-83
2023/12/07 11:19:37;;;;;;;182.13;34.08;;;0.60;100.00;;;;;;5007598;28;20053;-84
2023/12/07 11:22:06;;;;;;;197.57;34.95;;;0.60;100.00;;;;;;5007461;28;20076;-83
2023/12/07 11:24:33;;;;;;;166.02;32.50;;;0.70;100.00;;;;;;5018481;28;20428;-84
2023/12/07 11:27:01;;;;;;;184.25;33.30;;;0.70;100.00;;;;;;5015865;28;20064;-84
2023/12/07 11:29:30;;;;;;;192.45;34.22;;;0.70;100.00;;;;;;5004114;28;20148;-84
2023/12/07 11:32:01;;;;;;;184.25;34.20;;;0.70;100.00;;;;;;5010553;28;20073;-84
2023/12/07 11:34:39;;;;;;;202.02;33.28;;;0.70;100.00;;;;;;5013468;28;20125;-84
2023/12/07 11:37:07;;;;;;;174.20;33.65;;;0.70;100.00;;;;;;5007133;28;20490;-85
2023/12/07 11:39:36;;;;;;;188.50;34.33;;;0.70;100.00;;;;;;5008124;28;20072;-85
2023/12/07 11:42:08;;;;;;;176.00;34.60;;;0.80;100.00;;;;;;5006743;28;20045;-85
2023/12/07 11:44:37;;;;;;;174.07;34.38;;;0.80;100.00;;;;;;5006600;28;20050;-84
2023/12/07 11:47:05;;;;;;;182.48;34.78;;;0.80;100.00;;;;;;5015966;28;20054;-85
2023/12/07 11:49:32;;;;;;;173.70;33.88;;;0.90;100.00;;;;;;5022757;28;20049;-86
2023/12/07 11:52:16;;;;;;;171.25;33.47;;;0.90;100.00;;;;;;5008212;28;20493;-85
2023/12/07 11:54:46;;;;;;;187.75;33.00;;;0.90;100.00;;;;;;5007677;28;20056;-86
2023/12/07 11:57:15;;;;;;;206.75;38.30;;;0.90;100.00;;;;;;5013495;28;20046;-86
2023/12/07 11:59:44;;;;;;;191.73;35.85;;;0.90;100.00;;;;;;5021129;28;20046;-87
2023/12/07 12:02:12;;;;;;;176.48;34.42;;;1.00;100.00;;;;;;5012431;28;20070;-85
2023/12/07 12:04:43;;;;;;;190.60;37.10;;;1.00;100.00;;;;;;5009913;28;20111;-86
2023/12/07 12:07:10;;;;;;;170.43;35.80;;;1.00;100.00;;;;;;5010916;28;20131;-86
2023/12/07 12:09:37;;;;;;;169.63;32.65;;;1.00;100.00;;;;;;5006361;28;20498;-86
2023/12/07 12:12:04;;;;;;;171.20;34.97;;;1.00;100.00;;;;;;5010743;28;20053;-85
2023/12/07 12:14:31;;;;;;;193.50;33.20;;;1.00;100.00;;;;;;5010230;28;20042;-85
2023/12/07 12:16:58;;;;;;;181.57;34.42;;;1.00;100.00;;;;;;5010566;28;20402;-85
2023/12/07 12:19:27;;;;;;;188.00;36.00;;;1.00;100.00;;;;;;5016139;28;20061;-85